< Typhoon 197309 1973 Season Typhoon 197311 >
Typhoon 197310 (IRIS)
General InformationTrack Information on Google Maps || Disaster Info.ResourceGoogle EarthGE AnimationAtom FeedGeoJSON
Detalied Best Track (Time Zone = UTC)
Year Month Day Hour Lat. Long. Pressure (hPa) Wind (kt) Class Image Chart
1973 8 6 18 17.8 141.0 1008 0 2 -- Chart
1973 8 7 00 17.5 140.5 1008 0 2 -- Chart
1973 8 7 06 17.4 140.0 1004 0 2 -- Chart
1973 8 7 12 17.2 139.0 1004 0 2 -- Chart
1973 8 7 18 17.0 138.0 1004 0 2 -- Chart
1973 8 8 00 17.0 137.0 1004 0 2 -- Chart
1973 8 8 06 17.0 136.0 1004 0 2 -- Chart
1973 8 8 12 17.0 135.0 1004 0 2 -- Chart
1973 8 8 18 17.0 134.0 1004 0 2 -- Chart
1973 8 9 00 17.5 133.0 1004 0 2 -- Chart
1973 8 9 06 18.5 132.0 1004 0 2 -- Chart
1973 8 9 12 19.5 131.5 1004 0 2 -- Chart
1973 8 9 18 20.2 131.3 1002 0 2 -- Chart
1973 8 10 00 21.0 131.0 1000 0 2 -- Chart
1973 8 10 06 21.5 130.8 1000 0 2 -- Chart
1973 8 10 12 21.9 130.8 1000 0 9 -- Chart
1973 8 10 18 23.0 131.0 994 0 9 -- Chart
1973 8 11 00 23.4 130.9 985 0 9 -- Chart
1973 8 11 06 23.4 131.1 990 0 9 -- Chart
1973 8 11 12 23.2 130.8 985 0 9 -- Chart
1973 8 11 18 23.2 130.7 980 0 9 -- Chart
1973 8 12 00 23.2 130.9 980 0 9 -- Chart
1973 8 12 06 23.0 130.9 975 0 9 -- Chart
1973 8 12 12 23.0 131.1 975 0 9 -- Chart
1973 8 12 18 23.2 131.5 975 0 9 -- Chart
1973 8 13 00 23.3 131.7 975 0 9 -- Chart
1973 8 13 06 23.5 132.1 975 0 9 -- Chart
1973 8 13 12 23.5 132.3 970 0 9 -- Chart
1973 8 13 18 24.0 132.2 970 0 9 -- Chart
1973 8 14 00 24.9 132.2 970 0 9 -- Chart
1973 8 14 06 25.5 131.6 970 0 9 -- Chart
1973 8 14 12 26.4 131.3 970 0 9 -- Chart
1973 8 14 18 27.3 130.3 970 0 9 -- Chart
1973 8 15 00 28.2 129.5 975 0 9 -- Chart
1973 8 15 06 28.7 128.6 975 0 9 -- Chart
1973 8 15 12 29.1 127.9 975 0 9 -- Chart
1973 8 15 18 29.6 127.1 975 0 9 -- Chart
1973 8 16 00 30.3 126.2 975 0 9 -- Chart
1973 8 16 06 31.2 125.4 975 0 9 -- Chart
1973 8 16 12 32.3 124.8 975 0 9 -- Chart
1973 8 16 18 33.5 124.7 975 0 9 -- Chart
1973 8 17 00 34.8 124.9 980 0 9 -- Chart
1973 8 17 06 36.4 125.7 985 0 9 -- Chart
1973 8 17 12 38.0 129.0 990 0 9 -- Chart
1973 8 17 18 39.0 130.0 992 0 9 -- Chart
1973 8 18 00 41.3 132.7 992 0 9 -- Chart
1973 8 18 06 43.0 136.0 990 0 6 -- Chart
1973 8 18 12 43.7 140.0 990 0 6 -- Chart
1973 8 18 18 44.0 146.0 992 0 6 -- Chart
1973 8 19 00 44.0 150.0 992 0 6 -- Chart
1973 8 19 06 44.0 153.7 994 0 6 -- Chart
1973 8 19 12 44.0 157.0 996 0 6 -- Chart
1973 8 19 18 44.0 160.8 996 0 6 -- Chart
1973 8 20 00 44.0 165.0 998 0 6 -- Chart
1973 8 20 06 45.0 169.0 1000 0 6 -- Chart
1973 8 20 12 45.4 172.9 1000 0 6 -- Chart
1973 8 20 18 46.0 176.0 1000 0 6 -- Chart
1973 8 21 00 47.8 181.0 1004 0 6 -- Chart
Japan Meteorological Agency Best Track Data | Correction Date : 1989-06-01
< Typhoon 197309 1973 Season Typhoon 197311 >

Help